sensor_id;sensor_type;location;lat;lon;timestamp;P1;durP1;ratioP1;P2;durP2;ratioP2
5416;SDS011;2731;50.754;12.990;2023-06-10T00:01:31;10.75;;;9.27;;
5416;SDS011;2731;50.754;12.990;2023-06-10T00:03:59;13.95;;;9.10;;
5416;SDS011;2731;50.754;12.990;2023-06-10T00:06:25;11.57;;;10.38;;
5416;SDS011;2731;50.754;12.990;2023-06-10T00:08:51;14.98;;;10.38;;
5416;SDS011;2731;50.754;12.990;2023-06-10T00:11:17;13.65;;;10.40;;
5416;SDS011;2731;50.754;12.990;2023-06-10T00:13:43;10.57;;;9.48;;
5416;SDS011;2731;50.754;12.990;2023-06-10T00:16:09;11.93;;;10.13;;
5416;SDS011;2731;50.754;12.990;2023-06-10T00:18:35;11.50;;;9.70;;
5416;SDS011;2731;50.754;12.990;2023-06-10T00:21:03;10.77;;;9.02;;
5416;SDS011;2731;50.754;12.990;2023-06-10T00:23:30;11.90;;;10.45;;
5416;SDS011;2731;50.754;12.990;2023-06-10T00:26:00;11.23;;;9.45;;
5416;SDS011;2731;50.754;12.990;2023-06-10T00:28:26;11.65;;;10.10;;
5416;SDS011;2731;50.754;12.990;2023-06-10T00:30:52;10.23;;;9.20;;
5416;SDS011;2731;50.754;12.990;2023-06-10T00:33:18;14.90;;;9.77;;
5416;SDS011;2731;50.754;12.990;2023-06-10T00:35:44;12.25;;;9.75;;
5416;SDS011;2731;50.754;12.990;2023-06-10T00:38:10;10.68;;;9.57;;
5416;SDS011;2731;50.754;12.990;2023-06-10T00:40:39;13.73;;;10.05;;
5416;SDS011;2731;50.754;12.990;2023-06-10T00:43:06;13.38;;;9.93;;
5416;SDS011;2731;50.754;12.990;2023-06-10T00:45:32;13.48;;;10.18;;
5416;SDS011;2731;50.754;12.990;2023-06-10T00:47:59;12.77;;;10.25;;
5416;SDS011;2731;50.754;12.990;2023-06-10T00:50:25;10.13;;;9.07;;
5416;SDS011;2731;50.754;12.990;2023-06-10T00:52:51;11.77;;;9.85;;
5416;SDS011;2731;50.754;12.990;2023-06-10T00:55:17;13.10;;;9.52;;
5416;SDS011;2731;50.754;12.990;2023-06-10T00:57:44;11.68;;;9.50;;
5416;SDS011;2731;50.754;12.990;2023-06-10T01:00:11;12.02;;;9.45;;
5416;SDS011;2731;50.754;12.990;2023-06-10T01:02:38;10.88;;;9.27;;
5416;SDS011;2731;50.754;12.990;2023-06-10T01:05:04;12.85;;;10.95;;
5416;SDS011;2731;50.754;12.990;2023-06-10T01:07:33;12.65;;;9.55;;
5416;SDS011;2731;50.754;12.990;2023-06-10T01:14:59;10.65;;;9.20;;
5416;SDS011;2731;50.754;12.990;2023-06-10T01:17:25;14.23;;;9.65;;
5416;SDS011;2731;50.754;12.990;2023-06-10T01:19:55;13.13;;;10.73;;
5416;SDS011;2731;50.754;12.990;2023-06-10T01:22:24;10.32;;;9.18;;
5416;SDS011;2731;50.754;12.990;2023-06-10T01:24:53;11.63;;;9.70;;
5416;SDS011;2731;50.754;12.990;2023-06-10T01:27:23;11.55;;;9.48;;
5416;SDS011;2731;50.754;12.990;2023-06-10T01:30:14;13.30;;;10.07;;
5416;SDS011;2731;50.754;12.990;2023-06-10T01:32:45;10.48;;;9.43;;
5416;SDS011;2731;50.754;12.990;2023-06-10T01:35:11;10.93;;;9.47;;
5416;SDS011;2731;50.754;12.990;2023-06-10T01:37:38;12.82;;;10.20;;
5416;SDS011;2731;50.754;12.990;2023-06-10T01:40:04;10.10;;;9.05;;
5416;SDS011;2731;50.754;12.990;2023-06-10T01:42:31;10.32;;;9.25;;
5416;SDS011;2731;50.754;12.990;2023-06-10T01:44:57;12.48;;;10.02;;
5416;SDS011;2731;50.754;12.990;2023-06-10T01:47:23;13.55;;;9.75;;
5416;SDS011;2731;50.754;12.990;2023-06-10T01:49:49;12.27;;;10.10;;
5416;SDS011;2731;50.754;12.990;2023-06-10T01:52:15;11.85;;;9.30;;
5416;SDS011;2731;50.754;12.990;2023-06-10T01:54:42;11.52;;;9.15;;
5416;SDS011;2731;50.754;12.990;2023-06-10T01:57:08;11.05;;;9.90;;
5416;SDS011;2731;50.754;12.990;2023-06-10T01:59:34;11.40;;;8.43;;
5416;SDS011;2731;50.754;12.990;2023-06-10T02:02:02;10.50;;;9.40;;
5416;SDS011;2731;50.754;12.990;2023-06-10T02:04:28;12.60;;;9.63;;
5416;SDS011;2731;50.754;12.990;2023-06-10T02:06:55;11.68;;;9.65;;
5416;SDS011;2731;50.754;12.990;2023-06-10T02:09:21;10.65;;;8.60;;
5416;SDS011;2731;50.754;12.990;2023-06-10T02:11:48;11.30;;;9.38;;
5416;SDS011;2731;50.754;12.990;2023-06-10T02:14:14;11.73;;;9.80;;
5416;SDS011;2731;50.754;12.990;2023-06-10T02:16:40;11.35;;;10.15;;
5416;SDS011;2731;50.754;12.990;2023-06-10T02:19:11;12.18;;;9.95;;
5416;SDS011;2731;50.754;12.990;2023-06-10T02:21:37;15.80;;;9.75;;
5416;SDS011;2731;50.754;12.990;2023-06-10T02:24:03;11.68;;;9.38;;
5416;SDS011;2731;50.754;12.990;2023-06-10T02:26:30;11.93;;;9.65;;
5416;SDS011;2731;50.754;12.990;2023-06-10T02:28:56;14.82;;;9.95;;
5416;SDS011;2731;50.754;12.990;2023-06-10T02:31:22;13.48;;;10.32;;
5416;SDS011;2731;50.754;12.990;2023-06-10T02:33:50;11.85;;;9.15;;
5416;SDS011;2731;50.754;12.990;2023-06-10T02:36:16;10.82;;;9.38;;
5416;SDS011;2731;50.754;12.990;2023-06-10T02:38:42;11.23;;;9.63;;
5416;SDS011;2731;50.754;12.990;2023-06-10T02:41:08;15.05;;;11.18;;
5416;SDS011;2731;50.754;12.990;2023-06-10T02:43:34;11.77;;;9.65;;
5416;SDS011;2731;50.754;12.990;2023-06-10T02:46:00;11.18;;;9.27;;
5416;SDS011;2731;50.754;12.990;2023-06-10T02:48:26;12.02;;;9.05;;
5416;SDS011;2731;50.754;12.990;2023-06-10T02:50:53;11.65;;;9.32;;
5416;SDS011;2731;50.754;12.990;2023-06-10T02:53:21;11.93;;;9.00;;
5416;SDS011;2731;50.754;12.990;2023-06-10T02:55:47;11.95;;;8.45;;
5416;SDS011;2731;50.754;12.990;2023-06-10T02:58:13;14.07;;;9.25;;
5416;SDS011;2731;50.754;12.990;2023-06-10T03:00:39;10.88;;;9.75;;
5416;SDS011;2731;50.754;12.990;2023-06-10T03:03:06;14.80;;;9.65;;
5416;SDS011;2731;50.754;12.990;2023-06-10T03:05:33;11.10;;;9.18;;
5416;SDS011;2731;50.754;12.990;2023-06-10T03:07:59;12.00;;;9.32;;
5416;SDS011;2731;50.754;12.990;2023-06-10T03:10:25;12.27;;;9.98;;
5416;SDS011;2731;50.754;12.990;2023-06-10T03:12:51;10.98;;;9.80;;
5416;SDS011;2731;50.754;12.990;2023-06-10T03:15:17;12.52;;;10.35;;
5416;SDS011;2731;50.754;12.990;2023-06-10T03:17:45;14.82;;;10.20;;
5416;SDS011;2731;50.754;12.990;2023-06-10T03:20:12;14.48;;;10.20;;
5416;SDS011;2731;50.754;12.990;2023-06-10T03:22:40;12.25;;;9.95;;
5416;SDS011;2731;50.754;12.990;2023-06-10T03:25:06;12.38;;;10.38;;
5416;SDS011;2731;50.754;12.990;2023-06-10T03:27:33;15.98;;;10.82;;
5416;SDS011;2731;50.754;12.990;2023-06-10T03:30:00;11.88;;;9.90;;
5416;SDS011;2731;50.754;12.990;2023-06-10T03:32:26;13.18;;;10.07;;
5416;SDS011;2731;50.754;12.990;2023-06-10T03:34:52;10.95;;;9.82;;
5416;SDS011;2731;50.754;12.990;2023-06-10T03:37:22;12.63;;;10.52;;
5416;SDS011;2731;50.754;12.990;2023-06-10T03:39:48;14.13;;;10.68;;
5416;SDS011;2731;50.754;12.990;2023-06-10T03:42:14;13.52;;;10.80;;
5416;SDS011;2731;50.754;12.990;2023-06-10T03:44:40;13.43;;;10.75;;
5416;SDS011;2731;50.754;12.990;2023-06-10T03:47:06;12.70;;;10.27;;
5416;SDS011;2731;50.754;12.990;2023-06-10T03:49:32;14.15;;;10.38;;
5416;SDS011;2731;50.754;12.990;2023-06-10T03:51:58;10.68;;;9.48;;
5416;SDS011;2731;50.754;12.990;2023-06-10T03:54:24;12.38;;;9.60;;
5416;SDS011;2731;50.754;12.990;2023-06-10T03:56:50;15.70;;;10.60;;
5416;SDS011;2731;50.754;12.990;2023-06-10T03:59:16;11.82;;;10.63;;
5416;SDS011;2731;50.754;12.990;2023-06-10T04:01:42;14.93;;;12.52;;
5416;SDS011;2731;50.754;12.990;2023-06-10T04:04:09;14.80;;;12.13;;
5416;SDS011;2731;50.754;12.990;2023-06-10T04:06:35;12.82;;;11.38;;
5416;SDS011;2731;50.754;12.990;2023-06-10T04:09:02;13.65;;;11.70;;
5416;SDS011;2731;50.754;12.990;2023-06-10T04:11:28;13.05;;;10.23;;
5416;SDS011;2731;50.754;12.990;2023-06-10T04:13:54;11.80;;;10.60;;
5416;SDS011;2731;50.754;12.990;2023-06-10T04:16:20;15.07;;;11.82;;
5416;SDS011;2731;50.754;12.990;2023-06-10T04:18:46;11.63;;;10.20;;
5416;SDS011;2731;50.754;12.990;2023-06-10T04:21:12;12.07;;;10.77;;
5416;SDS011;2731;50.754;12.990;2023-06-10T04:23:38;11.80;;;10.10;;
5416;SDS011;2731;50.754;12.990;2023-06-10T04:26:04;11.45;;;10.25;;
5416;SDS011;2731;50.754;12.990;2023-06-10T04:28:31;13.40;;;11.25;;
5416;SDS011;2731;50.754;12.990;2023-06-10T04:30:57;10.68;;;9.57;;
5416;SDS011;2731;50.754;12.990;2023-06-10T04:33:23;12.30;;;10.27;;
5416;SDS011;2731;50.754;12.990;2023-06-10T04:35:50;12.45;;;9.65;;
5416;SDS011;2731;50.754;12.990;2023-06-10T04:38:16;12.75;;;9.52;;
5416;SDS011;2731;50.754;12.990;2023-06-10T04:40:42;9.75;;;8.75;;
5416;SDS011;2731;50.754;12.990;2023-06-10T04:43:09;12.18;;;9.80;;
5416;SDS011;2731;50.754;12.990;2023-06-10T04:45:35;9.27;;;8.38;;
5416;SDS011;2731;50.754;12.990;2023-06-10T04:48:01;9.93;;;8.23;;
5416;SDS011;2731;50.754;12.990;2023-06-10T04:50:27;8.98;;;8.02;;
5416;SDS011;2731;50.754;12.990;2023-06-10T04:52:53;10.32;;;8.80;;
5416;SDS011;2731;50.754;12.990;2023-06-10T04:55:22;10.52;;;8.43;;
5416;SDS011;2731;50.754;12.990;2023-06-10T04:57:48;9.85;;;8.75;;
5416;SDS011;2731;50.754;12.990;2023-06-10T05:00:15;9.82;;;8.57;;
5416;SDS011;2731;50.754;12.990;2023-06-10T05:02:41;10.45;;;8.85;;
5416;SDS011;2731;50.754;12.990;2023-06-10T05:05:07;9.55;;;7.82;;
5416;SDS011;2731;50.754;12.990;2023-06-10T05:07:33;10.80;;;7.72;;
5416;SDS011;2731;50.754;12.990;2023-06-10T05:10:01;9.60;;;8.18;;
5416;SDS011;2731;50.754;12.990;2023-06-10T05:12:28;8.88;;;7.97;;
5416;SDS011;2731;50.754;12.990;2023-06-10T05:14:54;8.80;;;7.90;;
5416;SDS011;2731;50.754;12.990;2023-06-10T05:17:20;10.48;;;7.88;;
5416;SDS011;2731;50.754;12.990;2023-06-10T05:19:46;9.55;;;7.13;;
5416;SDS011;2731;50.754;12.990;2023-06-10T05:22:12;7.60;;;6.88;;
5416;SDS011;2731;50.754;12.990;2023-06-10T05:24:39;8.88;;;7.60;;
5416;SDS011;2731;50.754;12.990;2023-06-10T05:27:06;8.48;;;7.68;;
5416;SDS011;2731;50.754;12.990;2023-06-10T05:29:34;10.55;;;7.57;;
5416;SDS011;2731;50.754;12.990;2023-06-10T05:32:00;7.97;;;6.63;;
5416;SDS011;2731;50.754;12.990;2023-06-10T05:34:31;7.80;;;6.85;;
5416;SDS011;2731;50.754;12.990;2023-06-10T05:36:57;8.63;;;6.40;;
5416;SDS011;2731;50.754;12.990;2023-06-10T05:39:24;12.60;;;6.60;;
5416;SDS011;2731;50.754;12.990;2023-06-10T05:41:50;8.60;;;5.97;;
5416;SDS011;2731;50.754;12.990;2023-06-10T05:44:17;8.25;;;6.18;;
5416;SDS011;2731;50.754;12.990;2023-06-10T05:46:43;6.43;;;5.82;;
5416;SDS011;2731;50.754;12.990;2023-06-10T05:49:09;7.22;;;6.13;;
5416;SDS011;2731;50.754;12.990;2023-06-10T05:51:35;7.72;;;5.90;;
5416;SDS011;2731;50.754;12.990;2023-06-10T05:54:02;6.47;;;5.25;;
5416;SDS011;2731;50.754;12.990;2023-06-10T05:56:28;5.85;;;5.32;;
5416;SDS011;2731;50.754;12.990;2023-06-10T05:58:54;6.43;;;5.70;;
5416;SDS011;2731;50.754;12.990;2023-06-10T06:01:20;6.05;;;5.45;;
5416;SDS011;2731;50.754;12.990;2023-06-10T06:03:46;5.63;;;5.13;;
5416;SDS011;2731;50.754;12.990;2023-06-10T06:06:12;5.88;;;4.97;;
5416;SDS011;2731;50.754;12.990;2023-06-10T06:08:38;5.50;;;5.00;;
5416;SDS011;2731;50.754;12.990;2023-06-10T06:11:04;6.05;;;5.45;;
5416;SDS011;2731;50.754;12.990;2023-06-10T06:13:30;9.55;;;5.72;;
5416;SDS011;2731;50.754;12.990;2023-06-10T06:15:56;6.80;;;5.80;;
5416;SDS011;2731;50.754;12.990;2023-06-10T06:18:22;6.38;;;5.78;;
5416;SDS011;2731;50.754;12.990;2023-06-10T06:20:49;6.47;;;5.88;;
5416;SDS011;2731;50.754;12.990;2023-06-10T06:23:15;5.85;;;5.07;;
5416;SDS011;2731;50.754;12.990;2023-06-10T06:25:41;7.50;;;5.25;;
5416;SDS011;2731;50.754;12.990;2023-06-10T06:28:07;6.95;;;5.38;;
5416;SDS011;2731;50.754;12.990;2023-06-10T06:30:34;6.43;;;5.82;;
5416;SDS011;2731;50.754;12.990;2023-06-10T06:33:01;6.47;;;5.78;;
5416;SDS011;2731;50.754;12.990;2023-06-10T06:35:27;6.28;;;5.65;;
5416;SDS011;2731;50.754;12.990;2023-06-10T06:37:53;7.47;;;5.93;;
5416;SDS011;2731;50.754;12.990;2023-06-10T06:40:19;7.95;;;5.72;;
5416;SDS011;2731;50.754;12.990;2023-06-10T06:42:45;6.93;;;5.75;;
5416;SDS011;2731;50.754;12.990;2023-06-10T06:45:11;8.98;;;6.05;;
5416;SDS011;2731;50.754;12.990;2023-06-10T06:47:38;8.63;;;6.70;;
5416;SDS011;2731;50.754;12.990;2023-06-10T06:50:06;8.57;;;5.90;;
5416;SDS011;2731;50.754;12.990;2023-06-10T06:52:33;7.68;;;6.10;;
5416;SDS011;2731;50.754;12.990;2023-06-10T06:54:59;7.43;;;6.00;;
5416;SDS011;2731;50.754;12.990;2023-06-10T06:57:25;14.45;;;7.10;;
5416;SDS011;2731;50.754;12.990;2023-06-10T06:59:51;8.13;;;6.35;;
5416;SDS011;2731;50.754;12.990;2023-06-10T07:02:18;7.50;;;5.55;;
5416;SDS011;2731;50.754;12.990;2023-06-10T07:04:44;8.60;;;6.20;;
5416;SDS011;2731;50.754;12.990;2023-06-10T07:07:14;7.75;;;6.00;;
5416;SDS011;2731;50.754;12.990;2023-06-10T07:09:40;8.30;;;6.00;;
5416;SDS011;2731;50.754;12.990;2023-06-10T07:12:06;10.88;;;6.35;;
5416;SDS011;2731;50.754;12.990;2023-06-10T07:14:32;7.63;;;6.15;;
5416;SDS011;2731;50.754;12.990;2023-06-10T07:16:58;7.13;;;5.85;;
5416;SDS011;2731;50.754;12.990;2023-06-10T07:19:25;6.63;;;5.97;;
5416;SDS011;2731;50.754;12.990;2023-06-10T07:21:51;7.80;;;5.80;;
5416;SDS011;2731;50.754;12.990;2023-06-10T07:24:17;7.07;;;6.22;;
5416;SDS011;2731;50.754;12.990;2023-06-10T07:26:45;7.45;;;6.47;;
5416;SDS011;2731;50.754;12.990;2023-06-10T07:29:11;7.53;;;6.05;;
5416;SDS011;2731;50.754;12.990;2023-06-10T07:31:38;9.55;;;6.40;;
5416;SDS011;2731;50.754;12.990;2023-06-10T07:34:04;8.18;;;6.45;;
5416;SDS011;2731;50.754;12.990;2023-06-10T07:36:30;10.27;;;7.53;;
5416;SDS011;2731;50.754;12.990;2023-06-10T07:38:56;10.00;;;6.40;;
5416;SDS011;2731;50.754;12.990;2023-06-10T07:41:23;7.75;;;6.15;;
5416;SDS011;2731;50.754;12.990;2023-06-10T07:43:50;9.32;;;6.15;;
5416;SDS011;2731;50.754;12.990;2023-06-10T07:46:19;8.55;;;6.97;;
5416;SDS011;2731;50.754;12.990;2023-06-10T07:48:46;6.13;;;5.53;;
5416;SDS011;2731;50.754;12.990;2023-06-10T07:51:12;12.60;;;6.13;;
5416;SDS011;2731;50.754;12.990;2023-06-10T07:53:38;6.82;;;5.75;;
5416;SDS011;2731;50.754;12.990;2023-06-10T07:56:04;9.35;;;6.07;;
5416;SDS011;2731;50.754;12.990;2023-06-10T07:58:30;7.32;;;6.28;;
5416;SDS011;2731;50.754;12.990;2023-06-10T08:00:57;8.13;;;6.68;;
5416;SDS011;2731;50.754;12.990;2023-06-10T08:03:23;10.57;;;6.63;;
5416;SDS011;2731;50.754;12.990;2023-06-10T08:05:49;7.55;;;6.68;;
5416;SDS011;2731;50.754;12.990;2023-06-10T08:08:15;8.77;;;6.85;;
5416;SDS011;2731;50.754;12.990;2023-06-10T08:10:41;12.18;;;6.60;;
5416;SDS011;2731;50.754;12.990;2023-06-10T08:13:08;8.88;;;6.63;;
5416;SDS011;2731;50.754;12.990;2023-06-10T08:15:34;8.32;;;7.30;;
5416;SDS011;2731;50.754;12.990;2023-06-10T08:18:00;9.40;;;6.75;;
5416;SDS011;2731;50.754;12.990;2023-06-10T08:20:26;7.10;;;6.40;;
5416;SDS011;2731;50.754;12.990;2023-06-10T08:22:52;10.68;;;7.22;;
5416;SDS011;2731;50.754;12.990;2023-06-10T08:25:18;9.63;;;7.32;;
5416;SDS011;2731;50.754;12.990;2023-06-10T08:27:47;8.70;;;6.70;;
5416;SDS011;2731;50.754;12.990;2023-06-10T08:30:13;7.65;;;6.38;;
5416;SDS011;2731;50.754;12.990;2023-06-10T08:32:39;7.72;;;6.65;;
5416;SDS011;2731;50.754;12.990;2023-06-10T08:35:05;8.27;;;6.88;;
5416;SDS011;2731;50.754;12.990;2023-06-10T08:37:31;8.10;;;6.13;;
5416;SDS011;2731;50.754;12.990;2023-06-10T08:39:57;7.78;;;6.50;;
5416;SDS011;2731;50.754;12.990;2023-06-10T08:42:28;9.75;;;6.63;;
5416;SDS011;2731;50.754;12.990;2023-06-10T08:44:54;6.75;;;6.05;;
5416;SDS011;2731;50.754;12.990;2023-06-10T08:47:22;14.15;;;6.78;;
5416;SDS011;2731;50.754;12.990;2023-06-10T08:49:48;12.57;;;6.25;;
5416;SDS011;2731;50.754;12.990;2023-06-10T08:52:19;9.82;;;6.65;;
5416;SDS011;2731;50.754;12.990;2023-06-10T08:54:48;7.05;;;6.22;;
5416;SDS011;2731;50.754;12.990;2023-06-10T08:57:15;9.68;;;6.10;;
5416;SDS011;2731;50.754;12.990;2023-06-10T08:59:42;6.97;;;6.28;;
5416;SDS011;2731;50.754;12.990;2023-06-10T09:02:08;8.98;;;6.90;;
5416;SDS011;2731;50.754;12.990;2023-06-10T09:04:36;7.47;;;6.78;;
5416;SDS011;2731;50.754;12.990;2023-06-10T09:07:02;10.88;;;6.55;;
5416;SDS011;2731;50.754;12.990;2023-06-10T09:09:28;8.43;;;6.20;;
5416;SDS011;2731;50.754;12.990;2023-06-10T09:11:58;8.68;;;6.15;;
5416;SDS011;2731;50.754;12.990;2023-06-10T09:14:25;8.68;;;6.65;;
5416;SDS011;2731;50.754;12.990;2023-06-10T09:16:51;8.60;;;7.10;;
5416;SDS011;2731;50.754;12.990;2023-06-10T09:19:17;7.75;;;6.50;;
5416;SDS011;2731;50.754;12.990;2023-06-10T09:21:43;8.25;;;6.18;;
5416;SDS011;2731;50.754;12.990;2023-06-10T09:24:09;11.00;;;6.40;;
5416;SDS011;2731;50.754;12.990;2023-06-10T09:26:35;7.82;;;6.07;;
5416;SDS011;2731;50.754;12.990;2023-06-10T09:29:07;10.57;;;6.10;;
5416;SDS011;2731;50.754;12.990;2023-06-10T09:31:37;8.27;;;5.75;;
5416;SDS011;2731;50.754;12.990;2023-06-10T09:34:11;6.80;;;5.72;;
5416;SDS011;2731;50.754;12.990;2023-06-10T09:36:38;10.15;;;6.93;;
5416;SDS011;2731;50.754;12.990;2023-06-10T09:39:04;9.55;;;6.43;;
5416;SDS011;2731;50.754;12.990;2023-06-10T09:41:39;8.57;;;5.90;;
5416;SDS011;2731;50.754;12.990;2023-06-10T09:44:16;7.63;;;6.15;;
5416;SDS011;2731;50.754;12.990;2023-06-10T09:46:44;5.88;;;5.28;;
5416;SDS011;2731;50.754;12.990;2023-06-10T09:49:10;8.63;;;6.85;;
5416;SDS011;2731;50.754;12.990;2023-06-10T09:51:37;10.70;;;5.55;;
5416;SDS011;2731;50.754;12.990;2023-06-10T09:54:03;8.05;;;5.30;;
5416;SDS011;2731;50.754;12.990;2023-06-10T09:56:33;6.00;;;5.40;;
5416;SDS011;2731;50.754;12.990;2023-06-10T09:58:59;8.13;;;5.60;;
5416;SDS011;2731;50.754;12.990;2023-06-10T10:01:25;6.70;;;4.40;;
5416;SDS011;2731;50.754;12.990;2023-06-10T10:03:52;7.63;;;5.30;;
5416;SDS011;2731;50.754;12.990;2023-06-10T10:06:18;4.68;;;4.15;;
5416;SDS011;2731;50.754;12.990;2023-06-10T10:08:47;7.63;;;4.65;;
5416;SDS011;2731;50.754;12.990;2023-06-10T10:11:17;6.03;;;4.88;;
5416;SDS011;2731;50.754;12.990;2023-06-10T10:13:45;5.50;;;4.47;;
5416;SDS011;2731;50.754;12.990;2023-06-10T10:16:11;9.35;;;4.85;;
5416;SDS011;2731;50.754;12.990;2023-06-10T10:19:01;6.03;;;4.55;;
5416;SDS011;2731;50.754;12.990;2023-06-10T10:21:26;5.88;;;4.20;;
5416;SDS011;2731;50.754;12.990;2023-06-10T10:24:06;5.55;;;4.05;;
5416;SDS011;2731;50.754;12.990;2023-06-10T10:26:33;5.72;;;4.30;;
5416;SDS011;2731;50.754;12.990;2023-06-10T10:31:35;10.18;;;5.00;;
5416;SDS011;2731;50.754;12.990;2023-06-10T10:34:02;7.20;;;4.80;;
5416;SDS011;2731;50.754;12.990;2023-06-10T10:36:30;5.28;;;4.78;;
5416;SDS011;2731;50.754;12.990;2023-06-10T10:38:57;7.03;;;5.20;;
5416;SDS011;2731;50.754;12.990;2023-06-10T10:41:24;8.27;;;5.63;;
5416;SDS011;2731;50.754;12.990;2023-06-10T10:43:51;6.38;;;5.35;;
5416;SDS011;2731;50.754;12.990;2023-06-10T10:46:18;7.82;;;6.18;;
5416;SDS011;2731;50.754;12.990;2023-06-10T10:48:44;9.95;;;6.38;;
5416;SDS011;2731;50.754;12.990;2023-06-10T10:51:11;7.47;;;5.18;;
5416;SDS011;2731;50.754;12.990;2023-06-10T10:53:38;8.25;;;5.90;;
5416;SDS011;2731;50.754;12.990;2023-06-10T10:58:30;8.65;;;5.72;;
5416;SDS011;2731;50.754;12.990;2023-06-10T11:01:00;7.55;;;5.80;;
5416;SDS011;2731;50.754;12.990;2023-06-10T11:03:35;6.47;;;5.80;;
5416;SDS011;2731;50.754;12.990;2023-06-10T11:06:11;6.50;;;5.90;;
5416;SDS011;2731;50.754;12.990;2023-06-10T11:16:44;6.13;;;5.50;;
5416;SDS011;2731;50.754;12.990;2023-06-10T11:19:10;7.50;;;5.30;;
5416;SDS011;2731;50.754;12.990;2023-06-10T11:22:06;5.50;;;4.80;;
5416;SDS011;2731;50.754;12.990;2023-06-10T11:24:32;5.53;;;4.80;;
5416;SDS011;2731;50.754;12.990;2023-06-10T11:27:14;5.63;;;5.13;;
5416;SDS011;2731;50.754;12.990;2023-06-10T11:32:33;7.35;;;5.55;;
5416;SDS011;2731;50.754;12.990;2023-06-10T11:35:00;8.25;;;5.22;;
5416;SDS011;2731;50.754;12.990;2023-06-10T11:37:28;6.72;;;4.75;;
5416;SDS011;2731;50.754;12.990;2023-06-10T11:39:54;6.03;;;5.40;;
5416;SDS011;2731;50.754;12.990;2023-06-10T11:42:24;7.55;;;5.05;;
5416;SDS011;2731;50.754;12.990;2023-06-10T11:44:50;7.45;;;5.60;;
5416;SDS011;2731;50.754;12.990;2023-06-10T11:47:17;7.32;;;4.55;;
5416;SDS011;2731;50.754;12.990;2023-06-10T11:49:43;8.13;;;4.88;;
5416;SDS011;2731;50.754;12.990;2023-06-10T11:52:09;6.72;;;4.88;;
5416;SDS011;2731;50.754;12.990;2023-06-10T11:54:36;7.57;;;5.10;;
5416;SDS011;2731;50.754;12.990;2023-06-10T11:57:02;5.82;;;4.30;;
5416;SDS011;2731;50.754;12.990;2023-06-10T11:59:29;6.45;;;4.85;;
5416;SDS011;2731;50.754;12.990;2023-06-10T12:01:55;5.32;;;4.63;;
5416;SDS011;2731;50.754;12.990;2023-06-10T12:04:22;5.47;;;4.82;;
5416;SDS011;2731;50.754;12.990;2023-06-10T12:06:50;6.82;;;5.25;;
5416;SDS011;2731;50.754;12.990;2023-06-10T12:09:23;7.85;;;4.72;;
5416;SDS011;2731;50.754;12.990;2023-06-10T12:11:51;7.43;;;5.28;;
5416;SDS011;2731;50.754;12.990;2023-06-10T12:17:02;6.80;;;5.18;;
5416;SDS011;2731;50.754;12.990;2023-06-10T12:19:29;10.65;;;4.55;;
5416;SDS011;2731;50.754;12.990;2023-06-10T12:21:56;7.80;;;5.05;;
5416;SDS011;2731;50.754;12.990;2023-06-10T12:24:22;6.07;;;4.25;;
5416;SDS011;2731;50.754;12.990;2023-06-10T12:26:48;5.43;;;4.85;;
5416;SDS011;2731;50.754;12.990;2023-06-10T12:31:59;5.97;;;4.70;;
5416;SDS011;2731;50.754;12.990;2023-06-10T12:36:58;6.28;;;5.10;;
5416;SDS011;2731;50.754;12.990;2023-06-10T12:39:24;6.35;;;4.47;;
5416;SDS011;2731;50.754;12.990;2023-06-10T12:41:51;5.05;;;3.45;;
5416;SDS011;2731;50.754;12.990;2023-06-10T12:44:17;4.85;;;3.85;;
5416;SDS011;2731;50.754;12.990;2023-06-10T12:46:43;6.40;;;3.85;;
5416;SDS011;2731;50.754;12.990;2023-06-10T12:49:19;5.90;;;4.03;;
5416;SDS011;2731;50.754;12.990;2023-06-10T12:51:45;10.15;;;3.92;;
5416;SDS011;2731;50.754;12.990;2023-06-10T12:54:11;5.22;;;4.63;;
5416;SDS011;2731;50.754;12.990;2023-06-10T12:56:37;4.18;;;3.78;;
5416;SDS011;2731;50.754;12.990;2023-06-10T12:59:03;6.32;;;4.03;;
5416;SDS011;2731;50.754;12.990;2023-06-10T13:01:30;6.07;;;4.40;;
5416;SDS011;2731;50.754;12.990;2023-06-10T13:03:57;5.20;;;3.80;;
5416;SDS011;2731;50.754;12.990;2023-06-10T13:06:23;4.75;;;3.50;;
5416;SDS011;2731;50.754;12.990;2023-06-10T13:08:49;5.43;;;4.40;;
5416;SDS011;2731;50.754;12.990;2023-06-10T13:11:16;4.90;;;4.40;;
5416;SDS011;2731;50.754;12.990;2023-06-10T13:13:42;5.13;;;4.45;;
5416;SDS011;2731;50.754;12.990;2023-06-10T13:16:08;7.80;;;4.32;;
5416;SDS011;2731;50.754;12.990;2023-06-10T13:18:34;5.88;;;4.53;;
5416;SDS011;2731;50.754;12.990;2023-06-10T13:21:05;7.53;;;4.50;;
5416;SDS011;2731;50.754;12.990;2023-06-10T13:23:31;8.55;;;4.53;;
5416;SDS011;2731;50.754;12.990;2023-06-10T13:25:57;6.88;;;4.38;;
5416;SDS011;2731;50.754;12.990;2023-06-10T13:28:23;9.20;;;4.55;;
5416;SDS011;2731;50.754;12.990;2023-06-10T13:30:50;6.15;;;4.70;;
5416;SDS011;2731;50.754;12.990;2023-06-10T13:33:16;6.45;;;4.20;;
5416;SDS011;2731;50.754;12.990;2023-06-10T13:35:42;5.75;;;4.25;;
5416;SDS011;2731;50.754;12.990;2023-06-10T13:38:08;5.25;;;4.45;;
5416;SDS011;2731;50.754;12.990;2023-06-10T13:40:34;6.95;;;4.35;;
5416;SDS011;2731;50.754;12.990;2023-06-10T13:43:00;7.47;;;4.40;;
5416;SDS011;2731;50.754;12.990;2023-06-10T13:45:27;8.52;;;4.72;;
5416;SDS011;2731;50.754;12.990;2023-06-10T13:47:53;6.13;;;4.30;;
5416;SDS011;2731;50.754;12.990;2023-06-10T13:50:19;5.13;;;4.28;;
5416;SDS011;2731;50.754;12.990;2023-06-10T13:52:45;7.18;;;4.38;;
5416;SDS011;2731;50.754;12.990;2023-06-10T13:55:11;8.45;;;4.22;;
5416;SDS011;2731;50.754;12.990;2023-06-10T13:57:37;5.43;;;4.22;;
5416;SDS011;2731;50.754;12.990;2023-06-10T14:00:04;7.05;;;4.13;;
5416;SDS011;2731;50.754;12.990;2023-06-10T14:02:30;5.20;;;4.15;;
5416;SDS011;2731;50.754;12.990;2023-06-10T14:04:56;4.80;;;4.15;;
5416;SDS011;2731;50.754;12.990;2023-06-10T14:07:22;7.88;;;4.50;;
5416;SDS011;2731;50.754;12.990;2023-06-10T14:09:51;5.25;;;4.50;;
5416;SDS011;2731;50.754;12.990;2023-06-10T14:12:17;4.70;;;3.80;;
5416;SDS011;2731;50.754;12.990;2023-06-10T14:14:43;8.93;;;4.88;;
5416;SDS011;2731;50.754;12.990;2023-06-10T14:17:09;5.72;;;4.45;;
5416;SDS011;2731;50.754;12.990;2023-06-10T14:19:35;6.63;;;4.35;;
5416;SDS011;2731;50.754;12.990;2023-06-10T14:22:01;6.85;;;4.35;;
5416;SDS011;2731;50.754;12.990;2023-06-10T14:24:27;5.72;;;4.57;;
5416;SDS011;2731;50.754;12.990;2023-06-10T14:26:53;7.22;;;4.45;;
5416;SDS011;2731;50.754;12.990;2023-06-10T14:29:20;6.78;;;4.55;;
5416;SDS011;2731;50.754;12.990;2023-06-10T14:31:47;8.95;;;4.40;;
5416;SDS011;2731;50.754;12.990;2023-06-10T14:34:13;8.93;;;4.07;;
5416;SDS011;2731;50.754;12.990;2023-06-10T14:36:39;6.03;;;3.92;;
5416;SDS011;2731;50.754;12.990;2023-06-10T14:39:05;5.78;;;3.92;;
5416;SDS011;2731;50.754;12.990;2023-06-10T14:41:31;6.57;;;4.85;;
5416;SDS011;2731;50.754;12.990;2023-06-10T14:43:57;5.88;;;4.15;;
5416;SDS011;2731;50.754;12.990;2023-06-10T14:46:23;8.02;;;4.05;;
5416;SDS011;2731;50.754;12.990;2023-06-10T14:48:49;5.25;;;4.72;;
5416;SDS011;2731;50.754;12.990;2023-06-10T14:51:16;4.20;;;3.75;;
5416;SDS011;2731;50.754;12.990;2023-06-10T14:53:42;7.32;;;4.07;;
5416;SDS011;2731;50.754;12.990;2023-06-10T14:56:08;6.20;;;4.18;;
5416;SDS011;2731;50.754;12.990;2023-06-10T14:58:34;4.45;;;4.05;;
5416;SDS011;2731;50.754;12.990;2023-06-10T15:01:00;5.65;;;3.88;;
5416;SDS011;2731;50.754;12.990;2023-06-10T15:03:26;6.45;;;4.18;;
5416;SDS011;2731;50.754;12.990;2023-06-10T15:05:52;4.47;;;3.97;;
5416;SDS011;2731;50.754;12.990;2023-06-10T15:08:18;5.32;;;4.72;;
5416;SDS011;2731;50.754;12.990;2023-06-10T15:10:44;4.40;;;3.95;;
5416;SDS011;2731;50.754;12.990;2023-06-10T15:13:10;7.90;;;4.20;;
5416;SDS011;2731;50.754;12.990;2023-06-10T15:15:36;6.45;;;4.25;;
5416;SDS011;2731;50.754;12.990;2023-06-10T15:18:02;7.15;;;4.40;;
5416;SDS011;2731;50.754;12.990;2023-06-10T15:20:28;4.80;;;4.32;;
5416;SDS011;2731;50.754;12.990;2023-06-10T15:22:54;5.10;;;4.35;;